createdAt,value
2019-01-14T00:01:37.603Z,97244.00
2019-01-14T00:04:08.262Z,97241.00
2019-01-14T00:06:39.011Z,97246.00
2019-01-14T00:09:10.937Z,97233.00
2019-01-14T00:11:41.768Z,97244.00
2019-01-14T00:14:12.485Z,97249.00
2019-01-14T00:16:46.425Z,97253.00
2019-01-14T00:19:17.175Z,97244.00
2019-01-14T00:21:48.019Z,97252.00
2019-01-14T00:24:18.680Z,97246.00
2019-01-14T00:26:51.381Z,97254.00
2019-01-14T00:29:22.122Z,97247.00
2019-01-14T00:31:52.806Z,97262.00
2019-01-14T00:34:24.245Z,97259.00
2019-01-14T00:36:54.979Z,97277.00
2019-01-14T00:39:25.672Z,97302.00
2019-01-14T00:41:56.319Z,97312.00
2019-01-14T00:44:26.992Z,97322.00
2019-01-14T00:46:57.774Z,97313.00
2019-01-14T00:49:28.430Z,97353.00
2019-01-14T00:51:58.967Z,97338.00
2019-01-14T00:54:29.570Z,97362.00
2019-01-14T00:57:02.448Z,97356.00
2019-01-14T00:59:33.172Z,97333.00
2019-01-14T01:02:03.935Z,97333.00
2019-01-14T01:04:36.507Z,97357.00
2019-01-14T01:07:07.021Z,97351.00
2019-01-14T01:09:40.547Z,97356.00
2019-01-14T01:12:11.324Z,97371.00
2019-01-14T01:14:42.090Z,97372.00
2019-01-14T01:17:12.750Z,97372.00
2019-01-14T01:19:43.677Z,97375.00
2019-01-14T01:22:14.394Z,97386.00
2019-01-14T01:24:45.164Z,97391.00
2019-01-14T01:27:17.146Z,97396.00
2019-01-14T01:29:47.663Z,97403.00
2019-01-14T01:32:18.229Z,97405.00
2019-01-14T01:34:48.808Z,97406.00
2019-01-14T01:37:19.551Z,97424.00
2019-01-14T01:39:50.354Z,97426.00
2019-01-14T01:42:21.002Z,97429.00
2019-01-14T01:44:51.521Z,97417.00
2019-01-14T01:47:22.277Z,97411.00
2019-01-14T01:49:53.017Z,97424.00
2019-01-14T01:52:23.823Z,97429.00
2019-01-14T01:54:54.538Z,97439.00
2019-01-14T01:57:25.154Z,97452.00
2019-01-14T01:59:55.721Z,97454.00
2019-01-14T02:02:26.817Z,97448.00
2019-01-14T02:05:17.273Z,97469.00
2019-01-14T02:07:48.482Z,97475.00
2019-01-14T02:10:22.017Z,97477.00
2019-01-14T02:12:52.668Z,97468.00
2019-01-14T02:15:23.887Z,97484.00
2019-01-14T02:17:54.661Z,97498.00
2019-01-14T02:20:28.339Z,97498.00
2019-01-14T02:22:58.997Z,97503.00
2019-01-14T02:25:32.232Z,97494.00
2019-01-14T02:28:02.807Z,97500.00
2019-01-14T02:30:33.519Z,97523.00
2019-01-14T02:33:04.329Z,97522.00
2019-01-14T02:35:35.140Z,97534.00
2019-01-14T02:38:05.835Z,97523.00
2019-01-14T02:40:36.366Z,97533.00
2019-01-14T02:43:06.957Z,97545.00
2019-01-14T02:45:37.520Z,97547.00
2019-01-14T02:48:08.123Z,97554.00
2019-01-14T02:50:38.784Z,97564.00
2019-01-14T02:53:09.543Z,97567.00
2019-01-14T02:55:40.104Z,97585.00
2019-01-14T02:58:10.882Z,97587.00
2019-01-14T03:00:41.602Z,97602.00
2019-01-14T03:03:12.371Z,97610.00
2019-01-14T03:05:43.055Z,97610.00
2019-01-14T03:08:13.779Z,97615.00
2019-01-14T03:10:44.447Z,97619.00
2019-01-14T03:13:15.955Z,97627.00
2019-01-14T03:15:46.633Z,97635.00
2019-01-14T03:18:17.263Z,97635.00
2019-01-14T03:20:47.889Z,97637.00
2019-01-14T03:23:18.524Z,97645.00
2019-01-14T03:25:57.783Z,97656.00
2019-01-14T03:28:21.567Z,97649.00
2019-01-14T03:30:52.312Z,97674.00
2019-01-14T03:33:23.028Z,97686.00
2019-01-14T03:35:53.624Z,97683.00
2019-01-14T03:38:24.200Z,97689.00
2019-01-14T03:40:55.038Z,97711.00
2019-01-14T03:43:25.695Z,97714.00
2019-01-14T03:45:56.320Z,97707.00
2019-01-14T03:48:26.955Z,97711.00
2019-01-14T03:50:57.609Z,97722.00
2019-01-14T03:53:28.254Z,97723.00
2019-01-14T03:55:59.119Z,97744.00
2019-01-14T03:58:29.762Z,97758.00
2019-01-14T04:01:00.384Z,97771.00
2019-01-14T04:03:30.965Z,97775.00
2019-01-14T04:06:01.770Z,97787.00
2019-01-14T04:08:32.553Z,97770.00
2019-01-14T04:11:03.379Z,97790.00
2019-01-14T04:13:34.148Z,97802.00
2019-01-14T04:16:05.207Z,97811.00
2019-01-14T04:18:36.023Z,97824.00
2019-01-14T04:21:06.709Z,97837.00
2019-01-14T04:23:37.345Z,97829.00
2019-01-14T04:26:10.076Z,97841.00
2019-01-14T04:28:40.341Z,97853.00
2019-01-14T04:31:12.037Z,97851.00
2019-01-14T04:33:42.616Z,97871.00
2019-01-14T04:36:13.269Z,97881.00
2019-01-14T04:38:44.268Z,97881.00
2019-01-14T04:41:14.889Z,97885.00
2019-01-14T04:43:48.514Z,97895.00
2019-01-14T04:46:19.113Z,97895.00
2019-01-14T04:48:49.726Z,97893.00
2019-01-14T04:51:20.389Z,97910.00
2019-01-14T04:53:50.922Z,97908.00
2019-01-14T04:56:21.488Z,97927.00
2019-01-14T04:58:52.142Z,97934.00
2019-01-14T05:01:22.697Z,97931.00
2019-01-14T05:03:53.338Z,97930.00
2019-01-14T05:06:24.027Z,97944.00
2019-01-14T05:08:57.261Z,97948.00
2019-01-14T05:11:28.124Z,97957.00
2019-01-14T05:13:59.209Z,97960.00
2019-01-14T05:16:30.005Z,97972.00
2019-01-14T05:19:00.594Z,97963.00
2019-01-14T05:21:31.224Z,97976.00
2019-01-14T05:24:01.768Z,97981.00
2019-01-14T05:26:33.606Z,97990.00
2019-01-14T05:29:04.869Z,97991.00
2019-01-14T05:31:35.716Z,98001.00
2019-01-14T05:34:06.763Z,98009.00
2019-01-14T05:36:37.590Z,98016.00
2019-01-14T05:39:10.481Z,98017.00
2019-01-14T05:41:41.398Z,98025.00
2019-01-14T05:44:12.162Z,98033.00
2019-01-14T05:46:42.853Z,98030.00
2019-01-14T05:49:13.464Z,98035.00
2019-01-14T05:51:44.053Z,98039.00
2019-01-14T05:54:14.707Z,98016.00
2019-01-14T05:56:45.280Z,98037.00
2019-01-14T05:59:15.905Z,98036.00
2019-01-14T06:01:46.753Z,98043.00
2019-01-14T06:04:17.409Z,98046.00
2019-01-14T06:06:48.294Z,98047.00
2019-01-14T06:09:18.979Z,98045.00
2019-01-14T06:11:49.675Z,98055.00
2019-01-14T06:14:23.337Z,98042.00
2019-01-14T06:16:54.025Z,98040.00
2019-01-14T06:19:25.205Z,98036.00
2019-01-14T06:21:58.607Z,98049.00
2019-01-14T06:24:29.115Z,98051.00
2019-01-14T06:26:59.746Z,98053.00
2019-01-14T06:29:30.559Z,98069.00
2019-01-14T06:32:08.019Z,98068.00
2019-01-14T06:34:40.079Z,98061.00
2019-01-14T06:37:12.401Z,98068.00
2019-01-14T06:39:48.273Z,98066.00
2019-01-14T06:42:28.128Z,98070.00
2019-01-14T06:44:58.716Z,98077.00
2019-01-14T06:47:29.658Z,98082.00
2019-01-14T06:50:02.793Z,98088.00
2019-01-14T06:52:33.426Z,98082.00
2019-01-14T06:55:13.178Z,98087.00
2019-01-14T06:57:47.177Z,98093.00
2019-01-14T07:00:22.916Z,98072.00
2019-01-14T07:03:01.155Z,98083.00
2019-01-14T07:05:31.860Z,98092.00
2019-01-14T07:08:03.835Z,98094.00
2019-01-14T07:10:37.553Z,98105.00
2019-01-14T07:13:11.208Z,98106.00
2019-01-14T07:15:41.850Z,98112.00
2019-01-14T07:18:14.919Z,98112.00
2019-01-14T07:20:48.455Z,98136.00
2019-01-14T07:23:18.958Z,98130.00
2019-01-14T07:25:49.637Z,98112.00
2019-01-14T07:28:39.337Z,98072.00
2019-01-14T07:31:10.047Z,98125.00
2019-01-14T07:33:40.859Z,98135.00
2019-01-14T07:36:11.731Z,98141.00
2019-01-14T07:38:42.565Z,98138.00
2019-01-14T07:41:15.465Z,98160.00
2019-01-14T07:43:47.145Z,98176.00
2019-01-14T07:46:17.834Z,98183.00
2019-01-14T07:48:48.471Z,98192.00
2019-01-14T07:51:19.203Z,98210.00
2019-01-14T07:53:50.237Z,98224.00
2019-01-14T07:56:23.896Z,98219.00
2019-01-14T07:58:55.483Z,98226.00
2019-01-14T08:01:26.580Z,98236.00
2019-01-14T08:03:57.709Z,98229.00
2019-01-14T08:06:30.206Z,98239.00
2019-01-14T08:09:01.197Z,98240.00
2019-01-14T08:11:31.994Z,98245.00
2019-01-14T08:14:05.538Z,98247.00
2019-01-14T08:16:36.826Z,98244.00
2019-01-14T08:19:14.738Z,98240.00
2019-01-14T08:21:51.309Z,98247.00
2019-01-14T08:24:24.681Z,98260.00
2019-01-14T08:26:54.674Z,98269.00
2019-01-14T08:29:25.501Z,98269.00
2019-01-14T08:31:56.443Z,98268.00
2019-01-14T08:34:26.936Z,98260.00
2019-01-14T08:37:00.783Z,98262.00
2019-01-14T08:39:31.536Z,98251.00
2019-01-14T08:42:03.275Z,98262.00
2019-01-14T08:44:41.602Z,98266.00
2019-01-14T08:47:12.290Z,98272.00
2019-01-14T08:49:42.728Z,98288.00
2019-01-14T08:52:13.507Z,98285.00
2019-01-14T08:54:46.097Z,98287.00
2019-01-14T08:57:16.549Z,98284.00
2019-01-14T08:59:47.184Z,98286.00
2019-01-14T09:02:17.845Z,98282.00
2019-01-14T09:04:48.300Z,98270.00
2019-01-14T09:07:19.051Z,98291.00
2019-01-14T09:09:51.810Z,98287.00
2019-01-14T09:12:22.548Z,98288.00
2019-01-14T09:14:54.553Z,98308.00
2019-01-14T09:17:25.331Z,98303.00
2019-01-14T09:19:56.367Z,98291.00
2019-01-14T09:22:27.325Z,98309.00
2019-01-14T09:24:58.100Z,98309.00
2019-01-14T09:27:28.794Z,98312.00
2019-01-14T09:29:59.292Z,98330.00
2019-01-14T09:32:33.071Z,98327.00
2019-01-14T09:35:03.992Z,98325.00
2019-01-14T09:37:35.768Z,98332.00
2019-01-14T09:40:08.584Z,98333.00
2019-01-14T09:42:39.294Z,98334.00
2019-01-14T09:45:11.064Z,98325.00
2019-01-14T09:47:41.636Z,98325.00
2019-01-14T09:50:14.466Z,98336.00
2019-01-14T09:52:44.932Z,98322.00
2019-01-14T09:55:18.722Z,98328.00
2019-01-14T09:57:50.125Z,98324.00
2019-01-14T10:00:20.648Z,98336.00
2019-01-14T10:02:55.615Z,98328.00
2019-01-14T10:05:27.929Z,98318.00
2019-01-14T10:08:01.026Z,98307.00
2019-01-14T10:10:31.662Z,98305.00
2019-01-14T10:13:02.251Z,98311.00
2019-01-14T10:15:32.752Z,98313.00
2019-01-14T10:18:04.864Z,98315.00
2019-01-14T10:20:38.401Z,98307.00
2019-01-14T10:23:09.004Z,98319.00
2019-01-14T10:25:39.459Z,98328.00
2019-01-14T10:28:12.162Z,98323.00
2019-01-14T10:30:43.035Z,98322.00
2019-01-14T10:33:13.933Z,98308.00
2019-01-14T10:35:47.731Z,98307.00
2019-01-14T10:38:20.893Z,98316.00
2019-01-14T10:40:54.523Z,98325.00
2019-01-14T10:43:25.160Z,98319.00
2019-01-14T10:45:58.970Z,98318.00
2019-01-14T10:48:29.671Z,98315.00
2019-01-14T10:51:00.356Z,98323.00
2019-01-14T10:53:30.853Z,98315.00
2019-01-14T10:56:01.408Z,98314.00
2019-01-14T10:58:32.007Z,98310.00
2019-01-14T11:01:04.428Z,98314.00
2019-01-14T11:03:35.135Z,98313.00
2019-01-14T11:06:06.156Z,98318.00
2019-01-14T11:08:36.694Z,98306.00
2019-01-14T11:11:07.418Z,98317.00
2019-01-14T11:13:37.996Z,98317.00
2019-01-14T11:16:08.454Z,98321.00
2019-01-14T11:18:47.317Z,98320.00
2019-01-14T11:21:17.882Z,98315.00
2019-01-14T11:23:48.424Z,98318.00
2019-01-14T11:26:19.035Z,98318.00
2019-01-14T11:28:49.519Z,98335.00
2019-01-14T11:31:20.238Z,98336.00
2019-01-14T11:33:50.827Z,98332.00
2019-01-14T11:36:21.359Z,98332.00
2019-01-14T11:38:53.108Z,98328.00
2019-01-14T11:41:25.645Z,98329.00
2019-01-14T11:44:00.526Z,98339.00
2019-01-14T11:46:31.101Z,98341.00
2019-01-14T11:49:01.623Z,98325.00
2019-01-14T11:51:32.193Z,98339.00
2019-01-14T11:54:05.222Z,98350.00
2019-01-14T11:56:36.564Z,98355.00
2019-01-14T11:59:07.181Z,98359.00
2019-01-14T12:01:41.130Z,98354.00
2019-01-14T12:04:11.661Z,98346.00
2019-01-14T12:06:42.254Z,98341.00
2019-01-14T12:09:13.368Z,98361.00
2019-01-14T12:11:43.836Z,98360.00
2019-01-14T12:14:14.337Z,98369.00
2019-01-14T12:16:45.073Z,98375.00
2019-01-14T12:19:15.575Z,98365.00
2019-01-14T12:21:46.013Z,98355.00
2019-01-14T12:24:16.535Z,98362.00
2019-01-14T12:26:47.064Z,98370.00
2019-01-14T12:29:17.754Z,98374.00
2019-01-14T12:31:48.420Z,98381.00
2019-01-14T12:34:18.899Z,98382.00
2019-01-14T12:36:49.668Z,98390.00
2019-01-14T12:39:23.470Z,98376.00
2019-01-14T12:41:54.276Z,98385.00
2019-01-14T12:44:25.157Z,98394.00
2019-01-14T12:46:56.060Z,98384.00
2019-01-14T12:49:27.005Z,98390.00
2019-01-14T12:51:57.816Z,98396.00
2019-01-14T12:54:30.935Z,98396.00
2019-01-14T12:57:01.384Z,98391.00
2019-01-14T12:59:31.894Z,98403.00
2019-01-14T13:02:02.304Z,98403.00
2019-01-14T13:04:32.990Z,98410.00
2019-01-14T13:07:03.606Z,98409.00
2019-01-14T13:09:34.318Z,98424.00
2019-01-14T13:12:07.786Z,98437.00
2019-01-14T13:14:38.521Z,98438.00
2019-01-14T13:17:08.966Z,98433.00
2019-01-14T13:19:42.858Z,98433.00
2019-01-14T13:22:13.946Z,98431.00
2019-01-14T13:24:46.608Z,98427.00
2019-01-14T13:27:17.429Z,98431.00
2019-01-14T13:29:48.214Z,98432.00
2019-01-14T13:32:18.868Z,98436.00
2019-01-14T13:34:49.458Z,98431.00
2019-01-14T13:37:20.033Z,98440.00
2019-01-14T13:39:52.583Z,98449.00
2019-01-14T13:42:22.861Z,98444.00
2019-01-14T13:44:53.533Z,98453.00
2019-01-14T13:47:24.207Z,98442.00
2019-01-14T13:49:54.674Z,98455.00
2019-01-14T13:52:25.218Z,98461.00
2019-01-14T13:54:57.489Z,98456.00
2019-01-14T13:57:40.853Z,98462.00
2019-01-14T14:00:17.432Z,98477.00
2019-01-14T14:02:48.318Z,98477.00
2019-01-14T14:05:19.517Z,98481.00
2019-01-14T14:07:50.163Z,98491.00
2019-01-14T14:10:39.595Z,98505.00
2019-01-14T14:13:10.404Z,98509.00
2019-01-14T14:15:42.272Z,98518.00
2019-01-14T14:18:13.116Z,98538.00
2019-01-14T14:20:47.023Z,98527.00
2019-01-14T14:23:20.846Z,98538.00
2019-01-14T14:25:51.767Z,98550.00
2019-01-14T14:28:22.631Z,98547.00
2019-01-14T14:30:54.494Z,98553.00
2019-01-14T14:33:25.886Z,98559.00
2019-01-14T14:35:56.388Z,98553.00
2019-01-14T14:38:30.020Z,98567.00
2019-01-14T14:41:01.125Z,98570.00
2019-01-14T14:43:32.097Z,98567.00
2019-01-14T14:46:02.830Z,98570.00
2019-01-14T14:48:33.593Z,98578.00
2019-01-14T14:51:07.407Z,98590.00
2019-01-14T14:53:38.340Z,98610.00
2019-01-14T14:56:09.367Z,98587.00
2019-01-14T14:58:40.005Z,98585.00
2019-01-14T15:01:10.834Z,98594.00
2019-01-14T15:03:44.535Z,98581.00
2019-01-14T15:06:15.202Z,98589.00
2019-01-14T15:08:45.680Z,98576.00
2019-01-14T15:11:16.423Z,98563.00
2019-01-14T15:13:47.376Z,98567.00
2019-01-14T15:16:22.286Z,98583.00
2019-01-14T15:18:53.299Z,98595.00
2019-01-14T15:21:23.878Z,98601.00
2019-01-14T15:23:54.588Z,98611.00
2019-01-14T15:26:25.125Z,98612.00
2019-01-14T15:28:55.791Z,98625.00
2019-01-14T15:31:26.478Z,98628.00
2019-01-14T15:33:59.586Z,98635.00
2019-01-14T15:36:30.752Z,98649.00
2019-01-14T15:39:07.574Z,98658.00
2019-01-14T15:41:38.270Z,98662.00
2019-01-14T15:44:09.192Z,98670.00
2019-01-14T15:46:39.943Z,98674.00
2019-01-14T15:49:12.877Z,98662.00
2019-01-14T15:51:43.779Z,98680.00
2019-01-14T15:54:17.498Z,98689.00
2019-01-14T15:56:49.204Z,98691.00
2019-01-14T15:59:20.410Z,98700.00
2019-01-14T16:01:51.289Z,98705.00
2019-01-14T16:04:22.166Z,98714.00
2019-01-14T16:06:52.894Z,98713.00
2019-01-14T16:09:23.607Z,98722.00
2019-01-14T16:11:57.182Z,98722.00
2019-01-14T16:14:28.146Z,98733.00
2019-01-14T16:16:58.872Z,98731.00
2019-01-14T16:19:29.567Z,98744.00
2019-01-14T16:22:00.371Z,98743.00
2019-01-14T16:24:34.304Z,98749.00
2019-01-14T16:27:05.188Z,98761.00
2019-01-14T16:29:35.806Z,98765.00
2019-01-14T16:32:07.982Z,98771.00
2019-01-14T16:34:38.830Z,98776.00
2019-01-14T16:37:09.607Z,98775.00
2019-01-14T16:39:42.096Z,98779.00
2019-01-14T16:42:13.039Z,98792.00
2019-01-14T16:44:44.748Z,98798.00
2019-01-14T16:47:15.459Z,98800.00
2019-01-14T16:49:46.099Z,98808.00
2019-01-14T16:52:17.138Z,98810.00
2019-01-14T16:54:48.082Z,98814.00
2019-01-14T16:57:18.967Z,98813.00
2019-01-14T16:59:49.802Z,98824.00
2019-01-14T17:02:20.499Z,98820.00
2019-01-14T17:04:51.384Z,98818.00
2019-01-14T17:07:22.484Z,98833.00
2019-01-14T17:09:53.325Z,98844.00
2019-01-14T17:12:24.361Z,98848.00
2019-01-14T17:14:55.418Z,98864.00
2019-01-14T17:17:26.400Z,98853.00
2019-01-14T17:19:57.231Z,98851.00
2019-01-14T17:22:28.019Z,98860.00
2019-01-14T17:24:58.784Z,98861.00
2019-01-14T17:27:29.591Z,98866.00
2019-01-14T17:30:00.535Z,98865.00
2019-01-14T17:32:31.599Z,98867.00
2019-01-14T17:35:02.599Z,98878.00
2019-01-14T17:37:33.167Z,98885.00
2019-01-14T17:40:04.798Z,98893.00
2019-01-14T17:42:35.647Z,98889.00
2019-01-14T17:45:09.341Z,98896.00
2019-01-14T17:47:40.025Z,98902.00
2019-01-14T17:50:14.982Z,98903.00
2019-01-14T17:52:45.606Z,98896.00
2019-01-14T17:55:17.882Z,98907.00
2019-01-14T17:57:48.518Z,98913.00
2019-01-14T18:00:23.033Z,98913.00
2019-01-14T18:02:53.987Z,98911.00
2019-01-14T18:05:24.648Z,98910.00
2019-01-14T18:07:55.389Z,98919.00
2019-01-14T18:10:26.121Z,98925.00
2019-01-14T18:12:57.040Z,98932.00
2019-01-14T18:15:27.977Z,98936.00
2019-01-14T18:17:58.544Z,98940.00
2019-01-14T18:20:29.294Z,98951.00
2019-01-14T18:23:00.017Z,98945.00
2019-01-14T18:25:30.882Z,98957.00
2019-01-14T18:28:01.745Z,98966.00
2019-01-14T18:30:32.830Z,98958.00
2019-01-14T18:33:03.989Z,98957.00
2019-01-14T18:35:38.026Z,98975.00
2019-01-14T18:38:11.782Z,98975.00
2019-01-14T18:40:47.058Z,98977.00
2019-01-14T18:43:15.364Z,98979.00
2019-01-14T18:45:46.138Z,98986.00
2019-01-14T18:48:17.076Z,98986.00
2019-01-14T18:50:47.835Z,98988.00
2019-01-14T18:53:18.507Z,99001.00
2019-01-14T18:55:49.256Z,98992.00
2019-01-14T18:58:19.881Z,99008.00
2019-01-14T19:00:50.531Z,99010.00
2019-01-14T19:03:21.224Z,99014.00
2019-01-14T19:05:53.714Z,99014.00
2019-01-14T19:08:26.749Z,99016.00
2019-01-14T19:11:00.281Z,99033.00
2019-01-14T19:13:34.054Z,99018.00
2019-01-14T19:16:07.279Z,99025.00
2019-01-14T19:18:38.456Z,99043.00
2019-01-14T19:21:09.467Z,99036.00
2019-01-14T19:23:40.842Z,99054.00
2019-01-14T19:26:11.491Z,99053.00
2019-01-14T19:28:44.914Z,99075.00
2019-01-14T19:31:18.085Z,99063.00
2019-01-14T19:33:49.083Z,99078.00
2019-01-14T19:36:19.696Z,99078.00
2019-01-14T19:38:50.449Z,99075.00
2019-01-14T19:41:21.238Z,99083.00
2019-01-14T19:43:52.188Z,99091.00
2019-01-14T19:46:23.125Z,99086.00
2019-01-14T19:48:54.068Z,99092.00
2019-01-14T19:51:24.976Z,99087.00
2019-01-14T19:53:55.915Z,99088.00
2019-01-14T19:56:31.412Z,99091.00
2019-01-14T19:59:02.058Z,99094.00
2019-01-14T20:01:32.791Z,99101.00
2019-01-14T20:04:03.750Z,99117.00
2019-01-14T20:06:34.543Z,99105.00
2019-01-14T20:09:07.430Z,99110.00
2019-01-14T20:11:38.018Z,99113.00
2019-01-14T20:14:08.711Z,99117.00
2019-01-14T20:16:39.369Z,99124.00
2019-01-14T20:19:10.188Z,99122.00
2019-01-14T20:21:40.790Z,99132.00
2019-01-14T20:24:13.247Z,99136.00
2019-01-14T20:26:44.037Z,99137.00
2019-01-14T20:29:16.232Z,99132.00
2019-01-14T20:31:46.920Z,99143.00
2019-01-14T20:34:17.541Z,99133.00
2019-01-14T20:36:49.971Z,99145.00
2019-01-14T20:39:21.031Z,99140.00
2019-01-14T20:41:51.766Z,99144.00
2019-01-14T20:44:22.333Z,99139.00
2019-01-14T20:46:54.210Z,99150.00
2019-01-14T20:49:25.314Z,99152.00
2019-01-14T20:51:56.123Z,99152.00
2019-01-14T20:54:26.907Z,99163.00
2019-01-14T20:56:57.747Z,99162.00
2019-01-14T20:59:33.405Z,99165.00
2019-01-14T21:02:00.817Z,99172.00
2019-01-14T21:04:31.735Z,99175.00
2019-01-14T21:07:02.523Z,99173.00
2019-01-14T21:09:33.259Z,99179.00
2019-01-14T21:12:04.314Z,99184.00
2019-01-14T21:14:35.406Z,99174.00
2019-01-14T21:17:06.173Z,99190.00
2019-01-14T21:19:36.641Z,99186.00
2019-01-14T21:22:07.361Z,99185.00
2019-01-14T21:24:37.971Z,99184.00
2019-01-14T21:27:08.704Z,99179.00
2019-01-14T21:29:39.548Z,99186.00
2019-01-14T21:32:10.110Z,99183.00
2019-01-14T21:34:40.794Z,99182.00
2019-01-14T21:37:11.573Z,99182.00
2019-01-14T21:39:42.099Z,99188.00
2019-01-14T21:42:12.802Z,99187.00
2019-01-14T21:44:43.444Z,99197.00
2019-01-14T21:47:16.486Z,99191.00
2019-01-14T21:49:47.181Z,99201.00
2019-01-14T21:52:17.729Z,99199.00
2019-01-14T21:54:48.535Z,99195.00
2019-01-14T21:57:19.631Z,99197.00
2019-01-14T21:59:50.223Z,99201.00
2019-01-14T22:02:20.799Z,99202.00
2019-01-14T22:04:51.646Z,99199.00
2019-01-14T22:07:22.647Z,99200.00
2019-01-14T22:09:53.243Z,99203.00
2019-01-14T22:12:24.018Z,99190.00
2019-01-14T22:14:54.750Z,99199.00
2019-01-14T22:17:25.469Z,99184.00
2019-01-14T22:19:57.193Z,99192.00
2019-01-14T22:22:27.909Z,99196.00
2019-01-14T22:24:58.564Z,99199.00
2019-01-14T22:27:30.289Z,99199.00
2019-01-14T22:30:03.197Z,99199.00
2019-01-14T22:32:33.919Z,99193.00
2019-01-14T22:35:04.451Z,99198.00
2019-01-14T22:37:35.287Z,99194.00
2019-01-14T22:40:08.160Z,99190.00
2019-01-14T22:42:38.794Z,99193.00
2019-01-14T22:45:09.912Z,99194.00
2019-01-14T22:47:40.456Z,99191.00
2019-01-14T22:50:14.431Z,99204.00
2019-01-14T22:52:45.114Z,99195.00
2019-01-14T22:55:15.767Z,99197.00
2019-01-14T22:57:46.481Z,99194.00
2019-01-14T23:01:17.702Z,99192.00
2019-01-14T23:03:51.508Z,99201.00
2019-01-14T23:06:22.080Z,99196.00
2019-01-14T23:08:52.576Z,99199.00
2019-01-14T23:11:24.103Z,99195.00
2019-01-14T23:13:54.631Z,99202.00
2019-01-14T23:16:25.158Z,99208.00
2019-01-14T23:18:55.799Z,99209.00
2019-01-14T23:21:26.432Z,99214.00
2019-01-14T23:23:57.081Z,99205.00
2019-01-14T23:26:27.708Z,99207.00
2019-01-14T23:28:58.229Z,99199.00
2019-01-14T23:31:28.859Z,99208.00
2019-01-14T23:34:02.760Z,99222.00
2019-01-14T23:36:34.382Z,99225.00
2019-01-14T23:39:08.074Z,99223.00
2019-01-14T23:41:38.603Z,99215.00
2019-01-14T23:44:09.486Z,99215.00
2019-01-14T23:46:40.146Z,99209.00
2019-01-14T23:49:10.740Z,99207.00
2019-01-14T23:51:41.315Z,99193.00
2019-01-14T23:54:11.931Z,99195.00
2019-01-14T23:56:42.422Z,99193.00
2019-01-14T23:59:13.165Z,99194.00
